sensor_id;sensor_type;location;lat;lon;timestamp;temperature;humidity
51500;DHT22;39101;53.478;6.158;2023-06-05T00:02:01;11.60;99.90
51500;DHT22;39101;53.478;6.158;2023-06-05T00:04:27;11.60;99.90
51500;DHT22;39101;53.478;6.158;2023-06-05T00:06:53;11.60;99.90
51500;DHT22;39101;53.478;6.158;2023-06-05T00:09:19;11.60;99.90
51500;DHT22;39101;53.478;6.158;2023-06-05T00:11:45;11.60;99.90
51500;DHT22;39101;53.478;6.158;2023-06-05T00:14:11;11.50;99.90
51500;DHT22;39101;53.478;6.158;2023-06-05T00:16:37;11.60;99.90
51500;DHT22;39101;53.478;6.158;2023-06-05T00:19:03;11.50;99.90
51500;DHT22;39101;53.478;6.158;2023-06-05T00:21:29;11.60;99.90
51500;DHT22;39101;53.478;6.158;2023-06-05T00:23:55;11.60;99.90
51500;DHT22;39101;53.478;6.158;2023-06-05T00:26:20;11.60;99.90
51500;DHT22;39101;53.478;6.158;2023-06-05T00:28:47;11.60;99.90
51500;DHT22;39101;53.478;6.158;2023-06-05T00:31:13;11.60;99.90
51500;DHT22;39101;53.478;6.158;2023-06-05T00:33:39;11.60;99.90
51500;DHT22;39101;53.478;6.158;2023-06-05T00:36:05;11.60;99.90
51500;DHT22;39101;53.478;6.158;2023-06-05T00:38:31;11.60;99.90
51500;DHT22;39101;53.478;6.158;2023-06-05T00:40:57;11.60;99.90
51500;DHT22;39101;53.478;6.158;2023-06-05T00:43:22;11.60;99.90
51500;DHT22;39101;53.478;6.158;2023-06-05T00:45:49;11.60;99.90
51500;DHT22;39101;53.478;6.158;2023-06-05T00:48:16;11.60;99.90
51500;DHT22;39101;53.478;6.158;2023-06-05T00:50:42;11.60;99.90
51500;DHT22;39101;53.478;6.158;2023-06-05T00:53:07;11.50;99.90
51500;DHT22;39101;53.478;6.158;2023-06-05T00:55:33;11.60;99.90
51500;DHT22;39101;53.478;6.158;2023-06-05T00:58:01;11.50;99.90
51500;DHT22;39101;53.478;6.158;2023-06-05T01:00:28;11.50;99.90
51500;DHT22;39101;53.478;6.158;2023-06-05T01:02:54;11.50;99.90
51500;DHT22;39101;53.478;6.158;2023-06-05T01:05:22;11.50;99.90
51500;DHT22;39101;53.478;6.158;2023-06-05T01:07:48;11.50;99.90
51500;DHT22;39101;53.478;6.158;2023-06-05T01:10:14;11.50;99.90
51500;DHT22;39101;53.478;6.158;2023-06-05T01:13:05;11.40;99.90
51500;DHT22;39101;53.478;6.158;2023-06-05T01:15:32;11.40;99.90
51500;DHT22;39101;53.478;6.158;2023-06-05T01:17:59;11.40;99.90
51500;DHT22;39101;53.478;6.158;2023-06-05T01:20:39;11.40;99.90
51500;DHT22;39101;53.478;6.158;2023-06-05T01:23:08;11.40;99.90
51500;DHT22;39101;53.478;6.158;2023-06-05T01:25:35;11.40;99.90
51500;DHT22;39101;53.478;6.158;2023-06-05T01:28:23;11.40;99.90
51500;DHT22;39101;53.478;6.158;2023-06-05T01:31:06;11.40;99.90
51500;DHT22;39101;53.478;6.158;2023-06-05T01:33:36;11.40;99.90
51500;DHT22;39101;53.478;6.158;2023-06-05T01:36:11;11.40;99.90
51500;DHT22;39101;53.478;6.158;2023-06-05T01:38:40;11.50;99.90
51500;DHT22;39101;53.478;6.158;2023-06-05T01:41:08;11.40;99.90
51500;DHT22;39101;53.478;6.158;2023-06-05T01:43:36;11.30;99.90
51500;DHT22;39101;53.478;6.158;2023-06-05T01:46:04;11.30;99.90
51500;DHT22;39101;53.478;6.158;2023-06-05T01:48:32;11.40;99.90
51500;DHT22;39101;53.478;6.158;2023-06-05T01:50:58;11.30;99.90
51500;DHT22;39101;53.478;6.158;2023-06-05T01:53:24;11.40;99.90
51500;DHT22;39101;53.478;6.158;2023-06-05T01:55:50;11.40;99.90
51500;DHT22;39101;53.478;6.158;2023-06-05T01:58:20;11.30;99.90
51500;DHT22;39101;53.478;6.158;2023-06-05T02:00:46;11.30;99.90
51500;DHT22;39101;53.478;6.158;2023-06-05T02:03:14;11.40;99.90
51500;DHT22;39101;53.478;6.158;2023-06-05T02:05:41;11.30;99.90
51500;DHT22;39101;53.478;6.158;2023-06-05T02:08:07;11.20;99.90
51500;DHT22;39101;53.478;6.158;2023-06-05T02:10:34;11.30;99.90
51500;DHT22;39101;53.478;6.158;2023-06-05T02:13:01;11.30;99.90
51500;DHT22;39101;53.478;6.158;2023-06-05T02:15:26;11.30;99.90
51500;DHT22;39101;53.478;6.158;2023-06-05T02:17:54;11.30;99.90
51500;DHT22;39101;53.478;6.158;2023-06-05T02:20:26;11.30;99.90
51500;DHT22;39101;53.478;6.158;2023-06-05T02:22:51;11.30;99.90
51500;DHT22;39101;53.478;6.158;2023-06-05T02:25:18;11.30;99.90
51500;DHT22;39101;53.478;6.158;2023-06-05T02:27:44;11.30;99.90
51500;DHT22;39101;53.478;6.158;2023-06-05T02:30:10;11.20;99.90
51500;DHT22;39101;53.478;6.158;2023-06-05T02:32:37;11.20;99.90
51500;DHT22;39101;53.478;6.158;2023-06-05T02:35:07;11.20;99.90
51500;DHT22;39101;53.478;6.158;2023-06-05T02:37:34;11.20;99.90
51500;DHT22;39101;53.478;6.158;2023-06-05T02:40:03;11.20;99.90
51500;DHT22;39101;53.478;6.158;2023-06-05T02:42:30;11.20;99.90
51500;DHT22;39101;53.478;6.158;2023-06-05T02:44:56;11.20;99.90
51500;DHT22;39101;53.478;6.158;2023-06-05T02:47:21;11.20;99.90
51500;DHT22;39101;53.478;6.158;2023-06-05T02:49:47;11.10;99.90
51500;DHT22;39101;53.478;6.158;2023-06-05T02:52:13;11.20;99.90
51500;DHT22;39101;53.478;6.158;2023-06-05T02:54:38;11.20;99.90
51500;DHT22;39101;53.478;6.158;2023-06-05T02:57:04;11.20;99.90
51500;DHT22;39101;53.478;6.158;2023-06-05T02:59:32;11.20;99.90
51500;DHT22;39101;53.478;6.158;2023-06-05T03:01:57;11.20;99.90
51500;DHT22;39101;53.478;6.158;2023-06-05T03:04:23;11.20;99.90
51500;DHT22;39101;53.478;6.158;2023-06-05T03:06:50;11.20;99.90
51500;DHT22;39101;53.478;6.158;2023-06-05T03:09:16;11.20;99.90
51500;DHT22;39101;53.478;6.158;2023-06-05T03:11:43;11.20;99.90
51500;DHT22;39101;53.478;6.158;2023-06-05T03:14:09;11.20;99.90
51500;DHT22;39101;53.478;6.158;2023-06-05T03:16:34;11.20;99.90
51500;DHT22;39101;53.478;6.158;2023-06-05T03:19:07;11.10;99.90
51500;DHT22;39101;53.478;6.158;2023-06-05T03:21:37;11.20;99.90
51500;DHT22;39101;53.478;6.158;2023-06-05T03:24:11;11.30;99.90
51500;DHT22;39101;53.478;6.158;2023-06-05T03:26:42;11.20;99.90
51500;DHT22;39101;53.478;6.158;2023-06-05T03:29:09;11.20;99.90
51500;DHT22;39101;53.478;6.158;2023-06-05T03:31:35;11.20;99.90
51500;DHT22;39101;53.478;6.158;2023-06-05T03:34:01;11.20;99.90
51500;DHT22;39101;53.478;6.158;2023-06-05T03:36:28;11.20;99.90
51500;DHT22;39101;53.478;6.158;2023-06-05T03:38:55;11.10;99.90
51500;DHT22;39101;53.478;6.158;2023-06-05T03:41:20;11.20;99.90
51500;DHT22;39101;53.478;6.158;2023-06-05T03:43:47;11.20;99.90
51500;DHT22;39101;53.478;6.158;2023-06-05T03:46:15;11.20;99.90
51500;DHT22;39101;53.478;6.158;2023-06-05T03:48:47;11.20;99.90
51500;DHT22;39101;53.478;6.158;2023-06-05T03:51:24;11.20;99.90
51500;DHT22;39101;53.478;6.158;2023-06-05T03:53:55;11.20;99.90
51500;DHT22;39101;53.478;6.158;2023-06-05T03:56:22;11.20;99.90
51500;DHT22;39101;53.478;6.158;2023-06-05T03:58:49;11.20;99.90
51500;DHT22;39101;53.478;6.158;2023-06-05T04:01:15;11.20;99.90
51500;DHT22;39101;53.478;6.158;2023-06-05T04:03:40;11.20;99.90
51500;DHT22;39101;53.478;6.158;2023-06-05T04:06:06;11.30;99.90
51500;DHT22;39101;53.478;6.158;2023-06-05T04:08:34;11.20;99.90
51500;DHT22;39101;53.478;6.158;2023-06-05T04:11:00;11.20;99.90
51500;DHT22;39101;53.478;6.158;2023-06-05T04:13:25;11.20;99.90
51500;DHT22;39101;53.478;6.158;2023-06-05T04:15:52;11.30;99.90
51500;DHT22;39101;53.478;6.158;2023-06-05T04:18:17;11.20;99.90
51500;DHT22;39101;53.478;6.158;2023-06-05T04:20:43;11.30;99.90
51500;DHT22;39101;53.478;6.158;2023-06-05T04:23:09;11.30;99.90
51500;DHT22;39101;53.478;6.158;2023-06-05T04:25:34;11.30;99.90
51500;DHT22;39101;53.478;6.158;2023-06-05T04:28:01;11.40;99.90
51500;DHT22;39101;53.478;6.158;2023-06-05T04:30:28;11.30;99.90
51500;DHT22;39101;53.478;6.158;2023-06-05T04:32:55;11.30;99.90
51500;DHT22;39101;53.478;6.158;2023-06-05T04:35:21;11.30;99.90
51500;DHT22;39101;53.478;6.158;2023-06-05T04:37:47;11.30;99.90
51500;DHT22;39101;53.478;6.158;2023-06-05T04:40:15;11.40;99.90
51500;DHT22;39101;53.478;6.158;2023-06-05T04:42:41;11.40;99.90
51500;DHT22;39101;53.478;6.158;2023-06-05T04:45:07;11.40;99.90
51500;DHT22;39101;53.478;6.158;2023-06-05T04:47:36;11.30;99.90
51500;DHT22;39101;53.478;6.158;2023-06-05T04:50:03;11.40;99.90
51500;DHT22;39101;53.478;6.158;2023-06-05T04:52:34;11.40;99.90
51500;DHT22;39101;53.478;6.158;2023-06-05T04:55:05;11.50;99.90
51500;DHT22;39101;53.478;6.158;2023-06-05T04:57:31;11.50;99.90
51500;DHT22;39101;53.478;6.158;2023-06-05T04:59:57;11.50;99.90
51500;DHT22;39101;53.478;6.158;2023-06-05T05:02:23;11.40;99.90
51500;DHT22;39101;53.478;6.158;2023-06-05T05:04:49;11.40;99.90
51500;DHT22;39101;53.478;6.158;2023-06-05T05:07:15;11.40;99.90
51500;DHT22;39101;53.478;6.158;2023-06-05T05:09:43;11.40;99.90
51500;DHT22;39101;53.478;6.158;2023-06-05T05:12:09;11.50;99.90
51500;DHT22;39101;53.478;6.158;2023-06-05T05:14:35;11.50;99.90
51500;DHT22;39101;53.478;6.158;2023-06-05T05:17:01;11.50;99.90
51500;DHT22;39101;53.478;6.158;2023-06-05T05:19:28;11.60;99.90
51500;DHT22;39101;53.478;6.158;2023-06-05T05:21:53;11.50;99.90
51500;DHT22;39101;53.478;6.158;2023-06-05T05:24:20;11.60;99.90
51500;DHT22;39101;53.478;6.158;2023-06-05T05:26:46;11.60;99.90
51500;DHT22;39101;53.478;6.158;2023-06-05T05:29:11;11.60;99.90
51500;DHT22;39101;53.478;6.158;2023-06-05T05:31:37;11.70;99.90
51500;DHT22;39101;53.478;6.158;2023-06-05T05:34:03;11.60;99.90
51500;DHT22;39101;53.478;6.158;2023-06-05T05:36:29;11.70;99.90
51500;DHT22;39101;53.478;6.158;2023-06-05T05:38:54;11.60;99.90
51500;DHT22;39101;53.478;6.158;2023-06-05T05:41:20;11.70;99.90
51500;DHT22;39101;53.478;6.158;2023-06-05T05:43:46;11.60;99.90
51500;DHT22;39101;53.478;6.158;2023-06-05T05:46:12;11.60;99.90
51500;DHT22;39101;53.478;6.158;2023-06-05T05:48:38;11.70;99.90
51500;DHT22;39101;53.478;6.158;2023-06-05T05:51:07;11.70;99.90
51500;DHT22;39101;53.478;6.158;2023-06-05T05:53:33;11.80;99.90
51500;DHT22;39101;53.478;6.158;2023-06-05T05:55:59;11.70;99.90
51500;DHT22;39101;53.478;6.158;2023-06-05T05:58:25;11.70;99.90
51500;DHT22;39101;53.478;6.158;2023-06-05T06:00:51;11.80;99.90
51500;DHT22;39101;53.478;6.158;2023-06-05T06:03:17;11.70;99.90
51500;DHT22;39101;53.478;6.158;2023-06-05T06:05:43;11.80;99.90
51500;DHT22;39101;53.478;6.158;2023-06-05T06:08:10;11.80;99.90
51500;DHT22;39101;53.478;6.158;2023-06-05T06:10:37;11.80;99.90
51500;DHT22;39101;53.478;6.158;2023-06-05T06:13:03;11.90;99.90
51500;DHT22;39101;53.478;6.158;2023-06-05T06:15:31;11.90;99.90
51500;DHT22;39101;53.478;6.158;2023-06-05T06:17:56;11.80;99.90
51500;DHT22;39101;53.478;6.158;2023-06-05T06:20:22;11.90;99.90
51500;DHT22;39101;53.478;6.158;2023-06-05T06:22:48;11.90;99.90
51500;DHT22;39101;53.478;6.158;2023-06-05T06:25:14;11.90;99.90
51500;DHT22;39101;53.478;6.158;2023-06-05T06:27:42;11.90;99.90
51500;DHT22;39101;53.478;6.158;2023-06-05T06:30:09;12.00;99.90
51500;DHT22;39101;53.478;6.158;2023-06-05T06:32:35;12.00;99.90
51500;DHT22;39101;53.478;6.158;2023-06-05T06:35:01;12.00;99.90
51500;DHT22;39101;53.478;6.158;2023-06-05T06:37:27;12.00;99.90
51500;DHT22;39101;53.478;6.158;2023-06-05T06:39:53;12.00;99.90
51500;DHT22;39101;53.478;6.158;2023-06-05T06:42:19;12.00;99.90
51500;DHT22;39101;53.478;6.158;2023-06-05T06:44:45;11.90;99.90
51500;DHT22;39101;53.478;6.158;2023-06-05T06:47:10;12.00;99.90
51500;DHT22;39101;53.478;6.158;2023-06-05T06:49:37;12.00;99.90
51500;DHT22;39101;53.478;6.158;2023-06-05T06:52:03;12.00;99.90
51500;DHT22;39101;53.478;6.158;2023-06-05T06:54:29;12.10;99.90
51500;DHT22;39101;53.478;6.158;2023-06-05T06:56:55;12.00;99.90
51500;DHT22;39101;53.478;6.158;2023-06-05T06:59:21;12.10;99.90
51500;DHT22;39101;53.478;6.158;2023-06-05T07:02:07;12.00;99.90
51500;DHT22;39101;53.478;6.158;2023-06-05T07:04:33;12.10;99.90
51500;DHT22;39101;53.478;6.158;2023-06-05T07:06:59;12.10;99.90
51500;DHT22;39101;53.478;6.158;2023-06-05T07:09:26;12.10;99.90
51500;DHT22;39101;53.478;6.158;2023-06-05T07:11:53;12.10;99.90
51500;DHT22;39101;53.478;6.158;2023-06-05T07:14:18;12.10;99.90
51500;DHT22;39101;53.478;6.158;2023-06-05T07:16:44;12.10;99.90
51500;DHT22;39101;53.478;6.158;2023-06-05T07:19:10;12.20;99.90
51500;DHT22;39101;53.478;6.158;2023-06-05T07:21:35;12.20;99.90
51500;DHT22;39101;53.478;6.158;2023-06-05T07:24:04;12.30;99.90
51500;DHT22;39101;53.478;6.158;2023-06-05T07:26:30;12.30;99.90
51500;DHT22;39101;53.478;6.158;2023-06-05T07:28:55;12.30;99.90
51500;DHT22;39101;53.478;6.158;2023-06-05T07:31:21;12.30;99.90
51500;DHT22;39101;53.478;6.158;2023-06-05T07:33:47;12.30;99.90
51500;DHT22;39101;53.478;6.158;2023-06-05T07:36:13;12.30;99.90
51500;DHT22;39101;53.478;6.158;2023-06-05T07:38:39;12.40;99.90
51500;DHT22;39101;53.478;6.158;2023-06-05T07:41:08;12.40;99.90
51500;DHT22;39101;53.478;6.158;2023-06-05T07:43:34;12.40;99.90
51500;DHT22;39101;53.478;6.158;2023-06-05T07:45:59;12.40;99.90
51500;DHT22;39101;53.478;6.158;2023-06-05T07:48:26;12.40;99.90
51500;DHT22;39101;53.478;6.158;2023-06-05T07:50:51;12.50;99.90
51500;DHT22;39101;53.478;6.158;2023-06-05T07:53:17;12.50;99.90
51500;DHT22;39101;53.478;6.158;2023-06-05T07:55:42;12.50;99.90
51500;DHT22;39101;53.478;6.158;2023-06-05T07:58:08;12.60;99.90
51500;DHT22;39101;53.478;6.158;2023-06-05T08:00:34;12.60;99.90
51500;DHT22;39101;53.478;6.158;2023-06-05T08:03:00;12.60;99.90
51500;DHT22;39101;53.478;6.158;2023-06-05T08:05:25;12.60;99.90
51500;DHT22;39101;53.478;6.158;2023-06-05T08:07:51;12.60;99.90
51500;DHT22;39101;53.478;6.158;2023-06-05T08:10:17;12.70;99.90
51500;DHT22;39101;53.478;6.158;2023-06-05T08:12:42;12.70;99.90
51500;DHT22;39101;53.478;6.158;2023-06-05T08:15:08;12.70;99.90
51500;DHT22;39101;53.478;6.158;2023-06-05T08:17:34;12.70;99.90
51500;DHT22;39101;53.478;6.158;2023-06-05T08:20:00;12.70;99.90
51500;DHT22;39101;53.478;6.158;2023-06-05T08:22:26;12.80;99.90
51500;DHT22;39101;53.478;6.158;2023-06-05T08:24:51;12.70;99.90
51500;DHT22;39101;53.478;6.158;2023-06-05T08:27:19;12.70;99.90
51500;DHT22;39101;53.478;6.158;2023-06-05T08:29:45;12.80;99.90
51500;DHT22;39101;53.478;6.158;2023-06-05T08:32:11;12.80;99.90
51500;DHT22;39101;53.478;6.158;2023-06-05T08:34:36;12.80;99.90
51500;DHT22;39101;53.478;6.158;2023-06-05T08:37:02;12.80;99.90
51500;DHT22;39101;53.478;6.158;2023-06-05T08:39:28;12.80;99.90
51500;DHT22;39101;53.478;6.158;2023-06-05T08:42:01;12.90;99.90
51500;DHT22;39101;53.478;6.158;2023-06-05T08:44:28;13.00;99.90
51500;DHT22;39101;53.478;6.158;2023-06-05T08:47:02;13.00;99.90
51500;DHT22;39101;53.478;6.158;2023-06-05T08:49:29;13.00;99.90
51500;DHT22;39101;53.478;6.158;2023-06-05T08:51:59;13.10;99.90
51500;DHT22;39101;53.478;6.158;2023-06-05T08:54:26;13.10;99.90
51500;DHT22;39101;53.478;6.158;2023-06-05T08:56:52;13.10;99.90
51500;DHT22;39101;53.478;6.158;2023-06-05T08:59:18;13.20;99.90
51500;DHT22;39101;53.478;6.158;2023-06-05T09:01:49;13.20;99.90
51500;DHT22;39101;53.478;6.158;2023-06-05T09:04:14;13.10;99.90
51500;DHT22;39101;53.478;6.158;2023-06-05T09:06:45;13.20;99.90
51500;DHT22;39101;53.478;6.158;2023-06-05T09:09:14;13.20;99.90
51500;DHT22;39101;53.478;6.158;2023-06-05T09:11:39;13.30;99.90
51500;DHT22;39101;53.478;6.158;2023-06-05T09:14:05;13.60;99.90
51500;DHT22;39101;53.478;6.158;2023-06-05T09:16:39;13.30;99.90
51500;DHT22;39101;53.478;6.158;2023-06-05T09:19:06;13.40;99.90
51500;DHT22;39101;53.478;6.158;2023-06-05T09:21:32;13.40;99.90
51500;DHT22;39101;53.478;6.158;2023-06-05T09:24:18;13.50;99.90
51500;DHT22;39101;53.478;6.158;2023-06-05T09:29:12;13.70;99.90
51500;DHT22;39101;53.478;6.158;2023-06-05T09:31:41;13.70;99.90
51500;DHT22;39101;53.478;6.158;2023-06-05T09:34:07;13.80;99.90
51500;DHT22;39101;53.478;6.158;2023-06-05T09:36:33;13.80;99.90
51500;DHT22;39101;53.478;6.158;2023-06-05T09:39:14;13.80;99.90
51500;DHT22;39101;53.478;6.158;2023-06-05T09:41:45;13.80;99.90
51500;DHT22;39101;53.478;6.158;2023-06-05T09:44:11;13.90;99.90
51500;DHT22;39101;53.478;6.158;2023-06-05T09:47:00;13.90;99.90
51500;DHT22;39101;53.478;6.158;2023-06-05T09:52:04;14.00;99.90
51500;DHT22;39101;53.478;6.158;2023-06-05T09:54:30;14.00;99.90
51500;DHT22;39101;53.478;6.158;2023-06-05T09:57:00;14.00;99.90
51500;DHT22;39101;53.478;6.158;2023-06-05T09:59:34;13.90;99.90
51500;DHT22;39101;53.478;6.158;2023-06-05T10:02:05;13.90;99.90
51500;DHT22;39101;53.478;6.158;2023-06-05T10:04:40;14.00;99.90
51500;DHT22;39101;53.478;6.158;2023-06-05T10:07:07;13.90;99.90
51500;DHT22;39101;53.478;6.158;2023-06-05T10:09:33;14.00;99.90
51500;DHT22;39101;53.478;6.158;2023-06-05T10:11:59;14.00;99.90
51500;DHT22;39101;53.478;6.158;2023-06-05T10:14:25;14.10;99.90
51500;DHT22;39101;53.478;6.158;2023-06-05T10:16:51;14.00;99.90
51500;DHT22;39101;53.478;6.158;2023-06-05T10:19:19;14.00;99.90
51500;DHT22;39101;53.478;6.158;2023-06-05T10:21:48;14.00;99.90
51500;DHT22;39101;53.478;6.158;2023-06-05T10:24:27;14.20;99.90
51500;DHT22;39101;53.478;6.158;2023-06-05T10:27:20;14.20;99.90
51500;DHT22;39101;53.478;6.158;2023-06-05T10:32:41;14.10;99.90
51500;DHT22;39101;53.478;6.158;2023-06-05T10:38:22;14.30;99.90
51500;DHT22;39101;53.478;6.158;2023-06-05T10:40:55;14.30;99.90
51500;DHT22;39101;53.478;6.158;2023-06-05T10:46:45;14.40;99.90
51500;DHT22;39101;53.478;6.158;2023-06-05T10:51:52;14.60;99.90
51500;DHT22;39101;53.478;6.158;2023-06-05T10:59:17;14.60;99.90
51500;DHT22;39101;53.478;6.158;2023-06-05T11:01:43;14.50;99.90
51500;DHT22;39101;53.478;6.158;2023-06-05T11:04:09;14.50;99.90
51500;DHT22;39101;53.478;6.158;2023-06-05T11:06:35;14.50;99.90
51500;DHT22;39101;53.478;6.158;2023-06-05T11:09:10;14.40;99.90
51500;DHT22;39101;53.478;6.158;2023-06-05T11:11:56;14.30;99.90
51500;DHT22;39101;53.478;6.158;2023-06-05T11:17:31;14.40;99.90
51500;DHT22;39101;53.478;6.158;2023-06-05T11:19:58;14.40;99.90
51500;DHT22;39101;53.478;6.158;2023-06-05T11:22:24;14.50;99.90
51500;DHT22;39101;53.478;6.158;2023-06-05T11:27:46;14.60;99.90
51500;DHT22;39101;53.478;6.158;2023-06-05T11:30:17;14.70;99.90
51500;DHT22;39101;53.478;6.158;2023-06-05T11:32:43;14.50;99.90
51500;DHT22;39101;53.478;6.158;2023-06-05T11:35:09;14.50;99.90
51500;DHT22;39101;53.478;6.158;2023-06-05T11:37:35;14.40;99.90
51500;DHT22;39101;53.478;6.158;2023-06-05T11:40:05;14.40;99.90
51500;DHT22;39101;53.478;6.158;2023-06-05T11:42:38;14.30;99.90
51500;DHT22;39101;53.478;6.158;2023-06-05T11:45:12;14.30;99.90
51500;DHT22;39101;53.478;6.158;2023-06-05T11:47:38;14.30;99.90
51500;DHT22;39101;53.478;6.158;2023-06-05T11:50:14;14.30;99.90
51500;DHT22;39101;53.478;6.158;2023-06-05T11:52:41;14.20;99.90
51500;DHT22;39101;53.478;6.158;2023-06-05T11:55:18;14.20;99.90
51500;DHT22;39101;53.478;6.158;2023-06-05T11:57:47;14.20;99.90
51500;DHT22;39101;53.478;6.158;2023-06-05T12:00:14;14.20;99.90
51500;DHT22;39101;53.478;6.158;2023-06-05T12:02:42;14.20;99.90
51500;DHT22;39101;53.478;6.158;2023-06-05T12:05:08;14.10;99.90
51500;DHT22;39101;53.478;6.158;2023-06-05T12:07:34;14.10;99.90
51500;DHT22;39101;53.478;6.158;2023-06-05T12:10:05;14.10;99.90
51500;DHT22;39101;53.478;6.158;2023-06-05T12:12:31;14.10;99.90
51500;DHT22;39101;53.478;6.158;2023-06-05T12:15:16;14.00;99.90
51500;DHT22;39101;53.478;6.158;2023-06-05T12:17:52;14.10;99.90
51500;DHT22;39101;53.478;6.158;2023-06-05T12:20:18;14.10;99.90
51500;DHT22;39101;53.478;6.158;2023-06-05T12:22:45;14.10;99.90
51500;DHT22;39101;53.478;6.158;2023-06-05T12:25:22;14.10;99.90
51500;DHT22;39101;53.478;6.158;2023-06-05T12:27:51;14.20;99.90
51500;DHT22;39101;53.478;6.158;2023-06-05T12:30:18;14.30;99.90
51500;DHT22;39101;53.478;6.158;2023-06-05T12:32:44;14.20;99.90
51500;DHT22;39101;53.478;6.158;2023-06-05T12:35:23;14.20;99.90
51500;DHT22;39101;53.478;6.158;2023-06-05T12:37:49;14.20;99.90
51500;DHT22;39101;53.478;6.158;2023-06-05T12:40:17;14.30;99.90
51500;DHT22;39101;53.478;6.158;2023-06-05T12:42:48;14.20;99.90
51500;DHT22;39101;53.478;6.158;2023-06-05T12:45:14;14.10;99.90
51500;DHT22;39101;53.478;6.158;2023-06-05T12:47:41;14.20;99.90
51500;DHT22;39101;53.478;6.158;2023-06-05T12:50:08;14.20;99.90
51500;DHT22;39101;53.478;6.158;2023-06-05T12:52:38;14.30;99.90
51500;DHT22;39101;53.478;6.158;2023-06-05T12:55:05;14.30;99.90
51500;DHT22;39101;53.478;6.158;2023-06-05T12:57:32;14.30;99.90
51500;DHT22;39101;53.478;6.158;2023-06-05T12:59:58;14.10;99.90
51500;DHT22;39101;53.478;6.158;2023-06-05T13:02:24;14.10;99.90
51500;DHT22;39101;53.478;6.158;2023-06-05T13:04:50;14.20;99.90
51500;DHT22;39101;53.478;6.158;2023-06-05T13:07:16;14.20;99.90
51500;DHT22;39101;53.478;6.158;2023-06-05T13:09:46;14.10;99.90
51500;DHT22;39101;53.478;6.158;2023-06-05T13:12:12;14.20;99.90
51500;DHT22;39101;53.478;6.158;2023-06-05T13:14:38;14.20;99.90
51500;DHT22;39101;53.478;6.158;2023-06-05T13:17:03;14.30;99.90
51500;DHT22;39101;53.478;6.158;2023-06-05T13:19:29;14.30;99.90
51500;DHT22;39101;53.478;6.158;2023-06-05T13:21:55;14.30;99.90
51500;DHT22;39101;53.478;6.158;2023-06-05T13:24:21;14.40;99.90
51500;DHT22;39101;53.478;6.158;2023-06-05T13:26:46;14.40;99.90
51500;DHT22;39101;53.478;6.158;2023-06-05T13:29:12;14.30;99.90
51500;DHT22;39101;53.478;6.158;2023-06-05T13:31:39;14.40;99.90
51500;DHT22;39101;53.478;6.158;2023-06-05T13:34:05;14.30;99.90
51500;DHT22;39101;53.478;6.158;2023-06-05T13:36:31;14.40;99.90
51500;DHT22;39101;53.478;6.158;2023-06-05T13:38:57;14.40;99.90
51500;DHT22;39101;53.478;6.158;2023-06-05T13:41:23;14.40;99.90
51500;DHT22;39101;53.478;6.158;2023-06-05T13:43:48;14.40;99.90
51500;DHT22;39101;53.478;6.158;2023-06-05T13:46:14;14.40;99.90
51500;DHT22;39101;53.478;6.158;2023-06-05T13:48:39;14.40;99.90
51500;DHT22;39101;53.478;6.158;2023-06-05T13:51:05;14.40;99.90
51500;DHT22;39101;53.478;6.158;2023-06-05T13:53:31;14.30;99.90
51500;DHT22;39101;53.478;6.158;2023-06-05T13:56:05;14.30;99.90
51500;DHT22;39101;53.478;6.158;2023-06-05T13:58:31;14.30;99.90
51500;DHT22;39101;53.478;6.158;2023-06-05T14:00:58;14.30;99.90
51500;DHT22;39101;53.478;6.158;2023-06-05T14:03:24;14.30;99.90
51500;DHT22;39101;53.478;6.158;2023-06-05T14:05:50;14.30;99.90
51500;DHT22;39101;53.478;6.158;2023-06-05T14:08:16;14.30;99.90
51500;DHT22;39101;53.478;6.158;2023-06-05T14:10:41;14.40;99.90
51500;DHT22;39101;53.478;6.158;2023-06-05T14:13:07;14.30;99.90
51500;DHT22;39101;53.478;6.158;2023-06-05T14:15:33;14.40;99.90
51500;DHT22;39101;53.478;6.158;2023-06-05T14:18:01;14.40;99.90
51500;DHT22;39101;53.478;6.158;2023-06-05T14:20:28;14.30;99.90
51500;DHT22;39101;53.478;6.158;2023-06-05T14:22:56;14.30;99.90
51500;DHT22;39101;53.478;6.158;2023-06-05T14:25:22;14.30;99.90
51500;DHT22;39101;53.478;6.158;2023-06-05T14:27:49;14.40;99.90
51500;DHT22;39101;53.478;6.158;2023-06-05T14:30:14;14.40;99.90
51500;DHT22;39101;53.478;6.158;2023-06-05T14:32:40;14.30;99.90
51500;DHT22;39101;53.478;6.158;2023-06-05T14:35:07;14.20;99.90
51500;DHT22;39101;53.478;6.158;2023-06-05T14:37:33;14.20;99.90
51500;DHT22;39101;53.478;6.158;2023-06-05T14:39:59;14.20;99.90
51500;DHT22;39101;53.478;6.158;2023-06-05T14:42:24;14.20;99.90
51500;DHT22;39101;53.478;6.158;2023-06-05T14:44:50;14.10;99.90
51500;DHT22;39101;53.478;6.158;2023-06-05T14:47:16;14.20;99.90
51500;DHT22;39101;53.478;6.158;2023-06-05T14:49:41;14.20;99.90
51500;DHT22;39101;53.478;6.158;2023-06-05T14:52:07;14.30;99.90
51500;DHT22;39101;53.478;6.158;2023-06-05T14:54:33;14.40;99.90
51500;DHT22;39101;53.478;6.158;2023-06-05T14:56:59;14.40;99.90
51500;DHT22;39101;53.478;6.158;2023-06-05T14:59:24;14.50;99.90
51500;DHT22;39101;53.478;6.158;2023-06-05T15:01:50;14.40;99.90
51500;DHT22;39101;53.478;6.158;2023-06-05T15:04:16;14.40;99.90
51500;DHT22;39101;53.478;6.158;2023-06-05T15:06:41;14.50;99.90
51500;DHT22;39101;53.478;6.158;2023-06-05T15:09:07;14.40;99.90
51500;DHT22;39101;53.478;6.158;2023-06-05T15:11:32;14.50;99.90
51500;DHT22;39101;53.478;6.158;2023-06-05T15:13:58;14.50;99.90
51500;DHT22;39101;53.478;6.158;2023-06-05T15:16:24;14.80;99.90
51500;DHT22;39101;53.478;6.158;2023-06-05T15:18:50;15.10;99.90
51500;DHT22;39101;53.478;6.158;2023-06-05T15:21:16;15.50;99.90
51500;DHT22;39101;53.478;6.158;2023-06-05T15:23:41;15.70;99.90
51500;DHT22;39101;53.478;6.158;2023-06-05T15:26:07;16.10;99.90
51500;DHT22;39101;53.478;6.158;2023-06-05T15:28:33;16.60;99.90
51500;DHT22;39101;53.478;6.158;2023-06-05T15:30:58;17.00;99.90
51500;DHT22;39101;53.478;6.158;2023-06-05T15:33:24;17.30;99.90
51500;DHT22;39101;53.478;6.158;2023-06-05T15:35:50;17.60;99.90
51500;DHT22;39101;53.478;6.158;2023-06-05T15:38:16;17.80;99.90
51500;DHT22;39101;53.478;6.158;2023-06-05T15:40:42;18.10;99.90
51500;DHT22;39101;53.478;6.158;2023-06-05T15:43:09;18.20;99.90
51500;DHT22;39101;53.478;6.158;2023-06-05T15:45:36;18.00;99.90
51500;DHT22;39101;53.478;6.158;2023-06-05T15:48:02;17.80;99.90
51500;DHT22;39101;53.478;6.158;2023-06-05T15:50:28;17.60;99.90
51500;DHT22;39101;53.478;6.158;2023-06-05T15:52:53;17.30;99.90
51500;DHT22;39101;53.478;6.158;2023-06-05T15:55:19;17.20;99.90
51500;DHT22;39101;53.478;6.158;2023-06-05T15:57:45;17.20;99.90
51500;DHT22;39101;53.478;6.158;2023-06-05T16:00:14;17.00;99.90